Luxembourg, Luxembourg
Current Conditions -  °F | °C
As of 8:20 AM on Thursday 18 Dec 2014 (Local Time) from ELLX Reporting Station
Drizzle Drizzle  
Wind Chill: 50°   Ceiling: 300
Heat Index: 50°   Visibility: 1.5mi
Dew Point: 48°   Wind: 9mph
Humidity: 94%   Direction: 240°WSW
Pressure: 29.91"   Gusts: NA
Location:  49.62°N, 6.12°E
Report Text: ELLX 180720Z 24008KT 200V270 2500 -DZ BR BKN003 10/09 Q1013 TEMPO 3000
Loading
Personal Weather Stations






























Interactive Weather Map New forecast layout! Learn more

10-Day Weather Forecast

Advertisements
Track Severe Weather on mobile